sensor_id;sensor_type;location;lat;lon;timestamp;temperature;humidity
36654;DHT22;22650;49.350;20.898;2023-03-16T00:02:24;2.20;99.90
36654;DHT22;22650;49.350;20.898;2023-03-16T00:04:58;2.20;99.90
36654;DHT22;22650;49.350;20.898;2023-03-16T00:07:32;2.20;99.90
36654;DHT22;22650;49.350;20.898;2023-03-16T00:10:07;2.20;99.90
36654;DHT22;22650;49.350;20.898;2023-03-16T00:12:43;2.30;99.90
36654;DHT22;22650;49.350;20.898;2023-03-16T00:15:18;2.30;99.90
36654;DHT22;22650;49.350;20.898;2023-03-16T00:17:52;2.30;99.90
36654;DHT22;22650;49.350;20.898;2023-03-16T00:20:25;2.30;99.90
36654;DHT22;22650;49.350;20.898;2023-03-16T00:22:59;2.30;99.90
36654;DHT22;22650;49.350;20.898;2023-03-16T00:25:33;2.30;99.90
36654;DHT22;22650;49.350;20.898;2023-03-16T00:28:07;2.30;99.90
36654;DHT22;22650;49.350;20.898;2023-03-16T00:30:42;2.30;99.90
36654;DHT22;22650;49.350;20.898;2023-03-16T00:33:19;2.30;99.90
36654;DHT22;22650;49.350;20.898;2023-03-16T00:35:54;2.30;99.90
36654;DHT22;22650;49.350;20.898;2023-03-16T00:38:35;2.40;99.90
36654;DHT22;22650;49.350;20.898;2023-03-16T00:41:10;2.30;99.90
36654;DHT22;22650;49.350;20.898;2023-03-16T00:43:45;2.40;99.90
36654;DHT22;22650;49.350;20.898;2023-03-16T00:46:21;2.30;99.90
36654;DHT22;22650;49.350;20.898;2023-03-16T00:48:59;2.40;99.90
36654;DHT22;22650;49.350;20.898;2023-03-16T00:51:33;2.40;99.90
36654;DHT22;22650;49.350;20.898;2023-03-16T00:54:07;2.40;99.90
36654;DHT22;22650;49.350;20.898;2023-03-16T00:56:40;2.40;99.90
36654;DHT22;22650;49.350;20.898;2023-03-16T00:59:14;2.40;99.90
36654;DHT22;22650;49.350;20.898;2023-03-16T01:01:49;2.40;99.90
36654;DHT22;22650;49.350;20.898;2023-03-16T01:04:23;2.40;99.90
36654;DHT22;22650;49.350;20.898;2023-03-16T01:06:57;2.40;99.90
36654;DHT22;22650;49.350;20.898;2023-03-16T01:09:31;2.40;99.90
36654;DHT22;22650;49.350;20.898;2023-03-16T01:12:10;2.40;99.90
36654;DHT22;22650;49.350;20.898;2023-03-16T01:14:44;2.40;99.90
36654;DHT22;22650;49.350;20.898;2023-03-16T01:17:19;2.40;99.90
36654;DHT22;22650;49.350;20.898;2023-03-16T01:19:54;2.40;99.90
36654;DHT22;22650;49.350;20.898;2023-03-16T01:22:27;2.50;99.90
36654;DHT22;22650;49.350;20.898;2023-03-16T01:25:01;2.50;99.90
36654;DHT22;22650;49.350;20.898;2023-03-16T01:27:34;2.40;99.90
36654;DHT22;22650;49.350;20.898;2023-03-16T01:30:10;2.50;99.90
36654;DHT22;22650;49.350;20.898;2023-03-16T01:32:45;2.40;99.90
36654;DHT22;22650;49.350;20.898;2023-03-16T01:35:19;2.40;99.90
36654;DHT22;22650;49.350;20.898;2023-03-16T01:37:53;2.50;99.90
36654;DHT22;22650;49.350;20.898;2023-03-16T01:40:29;2.40;99.90
36654;DHT22;22650;49.350;20.898;2023-03-16T01:43:03;2.40;99.90
36654;DHT22;22650;49.350;20.898;2023-03-16T01:46:14;2.40;99.90
36654;DHT22;22650;49.350;20.898;2023-03-16T01:48:58;2.40;99.90
36654;DHT22;22650;49.350;20.898;2023-03-16T01:51:39;2.40;99.90
36654;DHT22;22650;49.350;20.898;2023-03-16T01:54:20;2.40;99.90
36654;DHT22;22650;49.350;20.898;2023-03-16T01:56:59;2.30;99.90
36654;DHT22;22650;49.350;20.898;2023-03-16T01:59:42;2.30;99.90
36654;DHT22;22650;49.350;20.898;2023-03-16T02:03:11;2.30;99.90
36654;DHT22;22650;49.350;20.898;2023-03-16T02:06:11;2.30;99.90
36654;DHT22;22650;49.350;20.898;2023-03-16T02:08:52;2.20;99.90
36654;DHT22;22650;49.350;20.898;2023-03-16T02:11:27;2.20;99.90
36654;DHT22;22650;49.350;20.898;2023-03-16T02:14:10;2.30;99.90
36654;DHT22;22650;49.350;20.898;2023-03-16T02:16:45;2.20;99.90
36654;DHT22;22650;49.350;20.898;2023-03-16T02:19:28;2.20;99.90
36654;DHT22;22650;49.350;20.898;2023-03-16T02:22:07;2.20;99.90
36654;DHT22;22650;49.350;20.898;2023-03-16T02:24:41;2.10;99.90
36654;DHT22;22650;49.350;20.898;2023-03-16T02:27:21;2.10;99.90
36654;DHT22;22650;49.350;20.898;2023-03-16T02:30:07;2.10;99.90
36654;DHT22;22650;49.350;20.898;2023-03-16T02:32:52;2.10;99.90
36654;DHT22;22650;49.350;20.898;2023-03-16T02:35:26;2.10;99.90
36654;DHT22;22650;49.350;20.898;2023-03-16T02:38:00;2.10;99.90
36654;DHT22;22650;49.350;20.898;2023-03-16T02:40:38;2.00;99.90
36654;DHT22;22650;49.350;20.898;2023-03-16T02:43:19;2.00;99.90
36654;DHT22;22650;49.350;20.898;2023-03-16T02:46:08;2.00;99.90
36654;DHT22;22650;49.350;20.898;2023-03-16T02:48:44;2.00;99.90
36654;DHT22;22650;49.350;20.898;2023-03-16T02:51:20;2.00;99.90
36654;DHT22;22650;49.350;20.898;2023-03-16T02:53:53;2.00;99.90
36654;DHT22;22650;49.350;20.898;2023-03-16T02:56:30;2.00;99.90
36654;DHT22;22650;49.350;20.898;2023-03-16T02:59:04;2.00;99.90
36654;DHT22;22650;49.350;20.898;2023-03-16T03:01:40;2.00;99.90
36654;DHT22;22650;49.350;20.898;2023-03-16T03:04:14;1.90;99.90
36654;DHT22;22650;49.350;20.898;2023-03-16T03:06:48;2.00;99.90
36654;DHT22;22650;49.350;20.898;2023-03-16T03:09:21;1.90;99.90
36654;DHT22;22650;49.350;20.898;2023-03-16T03:11:58;1.80;99.90
36654;DHT22;22650;49.350;20.898;2023-03-16T03:14:31;1.80;99.90
36654;DHT22;22650;49.350;20.898;2023-03-16T03:17:10;1.80;99.90
36654;DHT22;22650;49.350;20.898;2023-03-16T03:19:45;1.80;99.90
36654;DHT22;22650;49.350;20.898;2023-03-16T03:22:19;1.80;99.90
36654;DHT22;22650;49.350;20.898;2023-03-16T03:24:53;1.80;99.90
36654;DHT22;22650;49.350;20.898;2023-03-16T03:27:26;1.80;99.90
36654;DHT22;22650;49.350;20.898;2023-03-16T03:30:00;1.80;99.90
36654;DHT22;22650;49.350;20.898;2023-03-16T03:32:35;1.80;99.90
36654;DHT22;22650;49.350;20.898;2023-03-16T03:35:10;1.80;99.90
36654;DHT22;22650;49.350;20.898;2023-03-16T03:37:44;1.80;99.90
36654;DHT22;22650;49.350;20.898;2023-03-16T03:40:20;1.80;99.90
36654;DHT22;22650;49.350;20.898;2023-03-16T03:43:00;1.70;99.90
36654;DHT22;22650;49.350;20.898;2023-03-16T03:45:36;1.70;99.90
36654;DHT22;22650;49.350;20.898;2023-03-16T03:48:12;1.80;99.90
36654;DHT22;22650;49.350;20.898;2023-03-16T03:50:45;1.80;99.90
36654;DHT22;22650;49.350;20.898;2023-03-16T03:53:37;1.80;99.90
36654;DHT22;22650;49.350;20.898;2023-03-16T03:56:31;1.80;99.90
36654;DHT22;22650;49.350;20.898;2023-03-16T03:59:05;1.70;99.90
36654;DHT22;22650;49.350;20.898;2023-03-16T04:01:57;1.70;99.90
36654;DHT22;22650;49.350;20.898;2023-03-16T04:04:42;1.70;99.90
36654;DHT22;22650;49.350;20.898;2023-03-16T04:07:17;1.70;99.90
36654;DHT22;22650;49.350;20.898;2023-03-16T04:09:52;1.70;99.90
36654;DHT22;22650;49.350;20.898;2023-03-16T04:12:46;1.80;99.90
36654;DHT22;22650;49.350;20.898;2023-03-16T04:15:20;1.70;99.90
36654;DHT22;22650;49.350;20.898;2023-03-16T04:18:20;1.70;99.90
36654;DHT22;22650;49.350;20.898;2023-03-16T04:20:55;1.70;99.90
36654;DHT22;22650;49.350;20.898;2023-03-16T04:23:30;1.70;99.90
36654;DHT22;22650;49.350;20.898;2023-03-16T04:26:05;1.70;99.90
36654;DHT22;22650;49.350;20.898;2023-03-16T04:28:38;1.70;99.90
36654;DHT22;22650;49.350;20.898;2023-03-16T04:31:14;1.70;99.90
36654;DHT22;22650;49.350;20.898;2023-03-16T04:33:50;1.70;99.90
36654;DHT22;22650;49.350;20.898;2023-03-16T04:36:28;1.70;99.90
36654;DHT22;22650;49.350;20.898;2023-03-16T04:39:02;1.70;99.90
36654;DHT22;22650;49.350;20.898;2023-03-16T04:41:36;1.70;99.90
36654;DHT22;22650;49.350;20.898;2023-03-16T04:44:15;1.70;99.90
36654;DHT22;22650;49.350;20.898;2023-03-16T04:46:49;1.60;99.90
36654;DHT22;22650;49.350;20.898;2023-03-16T04:49:23;1.60;99.90
36654;DHT22;22650;49.350;20.898;2023-03-16T04:51:59;1.60;99.90
36654;DHT22;22650;49.350;20.898;2023-03-16T04:54:33;1.60;99.90
36654;DHT22;22650;49.350;20.898;2023-03-16T04:57:07;1.60;99.90
36654;DHT22;22650;49.350;20.898;2023-03-16T04:59:46;1.60;99.90
36654;DHT22;22650;49.350;20.898;2023-03-16T05:02:26;1.60;99.90
36654;DHT22;22650;49.350;20.898;2023-03-16T05:05:04;1.60;99.90
36654;DHT22;22650;49.350;20.898;2023-03-16T05:07:41;1.60;99.90
36654;DHT22;22650;49.350;20.898;2023-03-16T05:10:16;1.60;99.90
36654;DHT22;22650;49.350;20.898;2023-03-16T05:12:51;1.60;99.90
36654;DHT22;22650;49.350;20.898;2023-03-16T05:15:25;1.60;99.90
36654;DHT22;22650;49.350;20.898;2023-03-16T05:18:04;1.60;99.90
36654;DHT22;22650;49.350;20.898;2023-03-16T05:20:38;1.50;99.90
36654;DHT22;22650;49.350;20.898;2023-03-16T05:23:13;1.50;99.90
36654;DHT22;22650;49.350;20.898;2023-03-16T05:25:51;1.50;99.90
36654;DHT22;22650;49.350;20.898;2023-03-16T05:28:27;1.50;99.90
36654;DHT22;22650;49.350;20.898;2023-03-16T05:31:05;1.50;99.90
36654;DHT22;22650;49.350;20.898;2023-03-16T05:33:53;1.50;99.90
36654;DHT22;22650;49.350;20.898;2023-03-16T05:36:27;1.50;99.90
36654;DHT22;22650;49.350;20.898;2023-03-16T05:39:09;1.40;99.90
36654;DHT22;22650;49.350;20.898;2023-03-16T05:41:47;1.40;99.90
36654;DHT22;22650;49.350;20.898;2023-03-16T05:44:26;1.40;99.90
36654;DHT22;22650;49.350;20.898;2023-03-16T05:47:17;1.40;99.90
36654;DHT22;22650;49.350;20.898;2023-03-16T05:49:57;1.40;99.90
36654;DHT22;22650;49.350;20.898;2023-03-16T05:52:36;1.50;99.90
36654;DHT22;22650;49.350;20.898;2023-03-16T05:55:19;1.50;99.90
36654;DHT22;22650;49.350;20.898;2023-03-16T05:57:59;1.50;99.90
36654;DHT22;22650;49.350;20.898;2023-03-16T06:00:36;1.50;99.90
36654;DHT22;22650;49.350;20.898;2023-03-16T06:03:25;1.60;99.90
36654;DHT22;22650;49.350;20.898;2023-03-16T06:06:00;1.60;99.90
36654;DHT22;22650;49.350;20.898;2023-03-16T06:08:39;1.60;99.90
36654;DHT22;22650;49.350;20.898;2023-03-16T06:11:17;1.70;99.90
36654;DHT22;22650;49.350;20.898;2023-03-16T06:13:50;1.70;99.90
36654;DHT22;22650;49.350;20.898;2023-03-16T06:16:24;1.70;99.90
36654;DHT22;22650;49.350;20.898;2023-03-16T06:18:58;1.70;99.90
36654;DHT22;22650;49.350;20.898;2023-03-16T06:21:33;1.80;99.90
36654;DHT22;22650;49.350;20.898;2023-03-16T06:24:12;1.80;99.90
36654;DHT22;22650;49.350;20.898;2023-03-16T06:26:47;1.80;99.90
36654;DHT22;22650;49.350;20.898;2023-03-16T06:29:22;1.80;99.90
36654;DHT22;22650;49.350;20.898;2023-03-16T06:31:55;1.80;99.90
36654;DHT22;22650;49.350;20.898;2023-03-16T06:34:29;1.80;99.90
36654;DHT22;22650;49.350;20.898;2023-03-16T06:37:03;1.90;99.90
36654;DHT22;22650;49.350;20.898;2023-03-16T06:39:37;1.90;99.90
36654;DHT22;22650;49.350;20.898;2023-03-16T06:42:12;1.90;99.90
36654;DHT22;22650;49.350;20.898;2023-03-16T06:44:45;2.00;99.90
36654;DHT22;22650;49.350;20.898;2023-03-16T06:47:19;2.00;99.90
36654;DHT22;22650;49.350;20.898;2023-03-16T06:49:53;2.10;99.90
36654;DHT22;22650;49.350;20.898;2023-03-16T06:52:30;2.20;99.90
36654;DHT22;22650;49.350;20.898;2023-03-16T06:55:04;2.20;99.90
36654;DHT22;22650;49.350;20.898;2023-03-16T06:57:42;2.20;99.90
36654;DHT22;22650;49.350;20.898;2023-03-16T07:00:16;2.20;99.90
36654;DHT22;22650;49.350;20.898;2023-03-16T07:02:49;2.20;99.90
36654;DHT22;22650;49.350;20.898;2023-03-16T07:05:24;2.30;99.90
36654;DHT22;22650;49.350;20.898;2023-03-16T07:07:58;2.20;99.90
36654;DHT22;22650;49.350;20.898;2023-03-16T07:10:32;2.30;99.90
36654;DHT22;22650;49.350;20.898;2023-03-16T07:13:07;2.40;99.90
36654;DHT22;22650;49.350;20.898;2023-03-16T07:15:40;2.40;99.90
36654;DHT22;22650;49.350;20.898;2023-03-16T07:18:15;2.50;99.90
36654;DHT22;22650;49.350;20.898;2023-03-16T07:20:49;2.60;99.90
36654;DHT22;22650;49.350;20.898;2023-03-16T07:23:23;2.60;99.90
36654;DHT22;22650;49.350;20.898;2023-03-16T07:26:01;2.80;99.90
36654;DHT22;22650;49.350;20.898;2023-03-16T07:28:39;2.80;99.90
36654;DHT22;22650;49.350;20.898;2023-03-16T07:31:13;3.00;99.90
36654;DHT22;22650;49.350;20.898;2023-03-16T07:33:47;3.10;99.90
36654;DHT22;22650;49.350;20.898;2023-03-16T07:36:29;3.30;99.90
36654;DHT22;22650;49.350;20.898;2023-03-16T07:39:05;3.30;99.90
36654;DHT22;22650;49.350;20.898;2023-03-16T07:41:39;3.40;99.90
36654;DHT22;22650;49.350;20.898;2023-03-16T07:44:23;3.50;99.90
36654;DHT22;22650;49.350;20.898;2023-03-16T07:46:58;3.60;99.90
36654;DHT22;22650;49.350;20.898;2023-03-16T07:49:34;3.70;99.90
36654;DHT22;22650;49.350;20.898;2023-03-16T07:52:09;3.70;99.90
36654;DHT22;22650;49.350;20.898;2023-03-16T07:54:45;3.80;99.90
36654;DHT22;22650;49.350;20.898;2023-03-16T07:57:20;3.90;99.90
36654;DHT22;22650;49.350;20.898;2023-03-16T07:59:55;4.00;99.90
36654;DHT22;22650;49.350;20.898;2023-03-16T08:02:30;4.10;99.90
36654;DHT22;22650;49.350;20.898;2023-03-16T08:05:04;4.20;99.90
36654;DHT22;22650;49.350;20.898;2023-03-16T08:07:38;4.20;99.90
36654;DHT22;22650;49.350;20.898;2023-03-16T08:10:17;4.40;99.90
36654;DHT22;22650;49.350;20.898;2023-03-16T08:12:58;4.60;99.90
36654;DHT22;22650;49.350;20.898;2023-03-16T08:15:33;4.90;99.90
36654;DHT22;22650;49.350;20.898;2023-03-16T08:18:19;5.30;99.80
36654;DHT22;22650;49.350;20.898;2023-03-16T08:20:56;5.60;97.10
36654;DHT22;22650;49.350;20.898;2023-03-16T08:23:30;6.00;96.20
36654;DHT22;22650;49.350;20.898;2023-03-16T08:26:04;6.30;95.80
36654;DHT22;22650;49.350;20.898;2023-03-16T08:28:41;6.60;94.50
36654;DHT22;22650;49.350;20.898;2023-03-16T08:31:20;6.50;90.10
36654;DHT22;22650;49.350;20.898;2023-03-16T08:34:01;6.60;90.80
36654;DHT22;22650;49.350;20.898;2023-03-16T08:36:38;6.70;90.50
36654;DHT22;22650;49.350;20.898;2023-03-16T08:39:16;7.00;90.90
36654;DHT22;22650;49.350;20.898;2023-03-16T08:41:51;7.00;83.80
36654;DHT22;22650;49.350;20.898;2023-03-16T08:44:51;7.30;89.30
36654;DHT22;22650;49.350;20.898;2023-03-16T08:47:28;7.50;87.90
36654;DHT22;22650;49.350;20.898;2023-03-16T08:50:03;7.10;76.00
36654;DHT22;22650;49.350;20.898;2023-03-16T08:52:38;7.00;79.90
36654;DHT22;22650;49.350;20.898;2023-03-16T08:55:14;7.00;79.20
36654;DHT22;22650;49.350;20.898;2023-03-16T08:57:48;6.80;77.70
36654;DHT22;22650;49.350;20.898;2023-03-16T09:00:22;6.80;77.90
36654;DHT22;22650;49.350;20.898;2023-03-16T09:02:57;6.70;76.60
36654;DHT22;22650;49.350;20.898;2023-03-16T09:05:32;6.80;75.20
36654;DHT22;22650;49.350;20.898;2023-03-16T09:08:05;6.50;73.40
36654;DHT22;22650;49.350;20.898;2023-03-16T09:10:39;6.30;74.40
36654;DHT22;22650;49.350;20.898;2023-03-16T09:13:13;6.40;74.80
36654;DHT22;22650;49.350;20.898;2023-03-16T09:15:47;6.60;74.50
36654;DHT22;22650;49.350;20.898;2023-03-16T09:18:22;6.60;72.50
36654;DHT22;22650;49.350;20.898;2023-03-16T09:20:57;6.50;72.60
36654;DHT22;22650;49.350;20.898;2023-03-16T09:23:32;6.60;74.50
36654;DHT22;22650;49.350;20.898;2023-03-16T09:26:06;6.50;73.80
36654;DHT22;22650;49.350;20.898;2023-03-16T09:28:40;6.40;72.70
36654;DHT22;22650;49.350;20.898;2023-03-16T09:31:16;6.40;74.80
36654;DHT22;22650;49.350;20.898;2023-03-16T09:33:52;6.30;72.70
36654;DHT22;22650;49.350;20.898;2023-03-16T09:36:26;6.40;72.50
36654;DHT22;22650;49.350;20.898;2023-03-16T09:38:59;6.70;73.30
36654;DHT22;22650;49.350;20.898;2023-03-16T09:41:41;6.80;71.80
36654;DHT22;22650;49.350;20.898;2023-03-16T09:44:30;6.60;70.40
36654;DHT22;22650;49.350;20.898;2023-03-16T09:47:04;6.50;69.90
36654;DHT22;22650;49.350;20.898;2023-03-16T09:49:43;6.30;69.80
36654;DHT22;22650;49.350;20.898;2023-03-16T09:52:27;6.20;70.20
36654;DHT22;22650;49.350;20.898;2023-03-16T09:55:06;6.50;72.30
36654;DHT22;22650;49.350;20.898;2023-03-16T09:57:43;6.70;73.30
36654;DHT22;22650;49.350;20.898;2023-03-16T10:00:21;6.80;72.30
36654;DHT22;22650;49.350;20.898;2023-03-16T10:03:14;6.90;70.10
36654;DHT22;22650;49.350;20.898;2023-03-16T10:05:56;7.00;68.60
36654;DHT22;22650;49.350;20.898;2023-03-16T10:08:37;7.40;71.70
36654;DHT22;22650;49.350;20.898;2023-03-16T10:11:24;7.50;67.60
36654;DHT22;22650;49.350;20.898;2023-03-16T10:14:03;7.50;69.70
36654;DHT22;22650;49.350;20.898;2023-03-16T10:16:46;7.40;69.90
36654;DHT22;22650;49.350;20.898;2023-03-16T10:19:30;7.50;71.10
36654;DHT22;22650;49.350;20.898;2023-03-16T10:22:18;7.30;68.00
36654;DHT22;22650;49.350;20.898;2023-03-16T10:25:00;7.40;70.60
36654;DHT22;22650;49.350;20.898;2023-03-16T10:27:36;7.40;72.20
36654;DHT22;22650;49.350;20.898;2023-03-16T10:30:18;7.50;70.90
36654;DHT22;22650;49.350;20.898;2023-03-16T10:32:53;7.50;68.50
36654;DHT22;22650;49.350;20.898;2023-03-16T10:35:39;7.80;71.50
36654;DHT22;22650;49.350;20.898;2023-03-16T10:38:31;8.00;69.20
36654;DHT22;22650;49.350;20.898;2023-03-16T10:41:21;8.20;69.60
36654;DHT22;22650;49.350;20.898;2023-03-16T10:43:57;8.10;67.50
36654;DHT22;22650;49.350;20.898;2023-03-16T10:46:36;8.00;68.40
36654;DHT22;22650;49.350;20.898;2023-03-16T10:49:20;7.80;69.50
36654;DHT22;22650;49.350;20.898;2023-03-16T10:51:55;7.80;69.90
36654;DHT22;22650;49.350;20.898;2023-03-16T10:54:34;7.80;69.80
36654;DHT22;22650;49.350;20.898;2023-03-16T10:57:26;7.80;69.30
36654;DHT22;22650;49.350;20.898;2023-03-16T11:00:06;7.90;69.40
36654;DHT22;22650;49.350;20.898;2023-03-16T11:02:53;8.00;67.40
36654;DHT22;22650;49.350;20.898;2023-03-16T11:05:28;8.30;70.40
36654;DHT22;22650;49.350;20.898;2023-03-16T11:08:07;8.40;68.90
36654;DHT22;22650;49.350;20.898;2023-03-16T11:10:46;8.40;67.10
36654;DHT22;22650;49.350;20.898;2023-03-16T11:13:32;8.30;66.60
36654;DHT22;22650;49.350;20.898;2023-03-16T11:16:26;8.30;68.60
36654;DHT22;22650;49.350;20.898;2023-03-16T11:19:09;8.30;65.80
36654;DHT22;22650;49.350;20.898;2023-03-16T11:21:49;8.20;65.70
36654;DHT22;22650;49.350;20.898;2023-03-16T11:24:31;8.20;64.90
36654;DHT22;22650;49.350;20.898;2023-03-16T11:27:17;8.10;64.40
36654;DHT22;22650;49.350;20.898;2023-03-16T11:30:00;7.90;64.30
36654;DHT22;22650;49.350;20.898;2023-03-16T11:32:38;7.80;64.50
36654;DHT22;22650;49.350;20.898;2023-03-16T11:35:14;7.70;64.80
36654;DHT22;22650;49.350;20.898;2023-03-16T11:38:04;7.80;63.80
36654;DHT22;22650;49.350;20.898;2023-03-16T11:40:47;7.90;62.30
36654;DHT22;22650;49.350;20.898;2023-03-16T11:43:46;8.20;64.50
36654;DHT22;22650;49.350;20.898;2023-03-16T11:46:22;8.40;64.10
36654;DHT22;22650;49.350;20.898;2023-03-16T11:49:10;8.30;64.40
36654;DHT22;22650;49.350;20.898;2023-03-16T11:51:49;8.40;64.00
36654;DHT22;22650;49.350;20.898;2023-03-16T11:54:42;8.20;64.30
36654;DHT22;22650;49.350;20.898;2023-03-16T11:57:29;8.30;66.40
36654;DHT22;22650;49.350;20.898;2023-03-16T12:00:16;8.50;65.90
36654;DHT22;22650;49.350;20.898;2023-03-16T12:03:20;8.90;64.70
36654;DHT22;22650;49.350;20.898;2023-03-16T12:06:02;9.00;62.60
36654;DHT22;22650;49.350;20.898;2023-03-16T12:09:16;8.80;61.00
36654;DHT22;22650;49.350;20.898;2023-03-16T12:11:57;8.10;59.00
36654;DHT22;22650;49.350;20.898;2023-03-16T12:14:36;8.00;62.00
36654;DHT22;22650;49.350;20.898;2023-03-16T12:17:15;7.80;62.20
36654;DHT22;22650;49.350;20.898;2023-03-16T12:19:52;8.00;62.60
36654;DHT22;22650;49.350;20.898;2023-03-16T12:22:30;8.20;63.80
36654;DHT22;22650;49.350;20.898;2023-03-16T12:25:13;8.50;63.60
36654;DHT22;22650;49.350;20.898;2023-03-16T12:27:51;8.80;59.90
36654;DHT22;22650;49.350;20.898;2023-03-16T12:30:34;9.10;62.60
36654;DHT22;22650;49.350;20.898;2023-03-16T12:33:18;9.50;60.10
36654;DHT22;22650;49.350;20.898;2023-03-16T12:35:58;9.50;59.40
36654;DHT22;22650;49.350;20.898;2023-03-16T12:38:43;9.50;59.60
36654;DHT22;22650;49.350;20.898;2023-03-16T12:41:27;9.30;58.60
36654;DHT22;22650;49.350;20.898;2023-03-16T12:44:12;9.00;58.20
36654;DHT22;22650;49.350;20.898;2023-03-16T12:46:53;8.70;60.00
36654;DHT22;22650;49.350;20.898;2023-03-16T12:49:32;8.50;62.40
36654;DHT22;22650;49.350;20.898;2023-03-16T12:52:08;8.50;61.60
36654;DHT22;22650;49.350;20.898;2023-03-16T12:54:50;8.80;62.10
36654;DHT22;22650;49.350;20.898;2023-03-16T12:57:25;9.20;63.80
36654;DHT22;22650;49.350;20.898;2023-03-16T13:00:00;9.40;62.70
36654;DHT22;22650;49.350;20.898;2023-03-16T13:02:37;9.50;60.70
36654;DHT22;22650;49.350;20.898;2023-03-16T13:05:17;9.50;60.90
36654;DHT22;22650;49.350;20.898;2023-03-16T13:08:06;9.50;61.00
36654;DHT22;22650;49.350;20.898;2023-03-16T13:10:41;9.40;60.60
36654;DHT22;22650;49.350;20.898;2023-03-16T13:13:16;9.20;59.80
36654;DHT22;22650;49.350;20.898;2023-03-16T13:16:02;9.00;59.30
36654;DHT22;22650;49.350;20.898;2023-03-16T13:18:38;8.60;59.30
36654;DHT22;22650;49.350;20.898;2023-03-16T13:21:19;8.30;60.50
36654;DHT22;22650;49.350;20.898;2023-03-16T13:23:56;8.30;61.70
36654;DHT22;22650;49.350;20.898;2023-03-16T13:26:38;8.50;61.50
36654;DHT22;22650;49.350;20.898;2023-03-16T13:29:22;8.60;60.10
36654;DHT22;22650;49.350;20.898;2023-03-16T13:31:58;8.90;60.70
36654;DHT22;22650;49.350;20.898;2023-03-16T13:34:35;9.00;59.30
36654;DHT22;22650;49.350;20.898;2023-03-16T13:37:13;8.80;59.50
36654;DHT22;22650;49.350;20.898;2023-03-16T13:39:51;8.60;59.60
36654;DHT22;22650;49.350;20.898;2023-03-16T13:42:28;8.40;60.60
36654;DHT22;22650;49.350;20.898;2023-03-16T13:45:11;8.30;60.40
36654;DHT22;22650;49.350;20.898;2023-03-16T13:47:46;8.30;62.00
36654;DHT22;22650;49.350;20.898;2023-03-16T13:50:20;8.40;60.70
36654;DHT22;22650;49.350;20.898;2023-03-16T13:52:59;8.60;61.60
36654;DHT22;22650;49.350;20.898;2023-03-16T13:55:36;8.70;60.20
36654;DHT22;22650;49.350;20.898;2023-03-16T13:58:19;8.80;59.20
36654;DHT22;22650;49.350;20.898;2023-03-16T14:00:56;8.80;58.90
36654;DHT22;22650;49.350;20.898;2023-03-16T14:03:33;8.70;58.80
36654;DHT22;22650;49.350;20.898;2023-03-16T14:06:19;8.40;56.40
36654;DHT22;22650;49.350;20.898;2023-03-16T14:08:57;8.30;57.90
36654;DHT22;22650;49.350;20.898;2023-03-16T14:11:32;8.20;60.20
36654;DHT22;22650;49.350;20.898;2023-03-16T14:14:13;8.20;60.70
36654;DHT22;22650;49.350;20.898;2023-03-16T14:16:47;8.20;61.60
36654;DHT22;22650;49.350;20.898;2023-03-16T14:19:23;8.30;61.50
36654;DHT22;22650;49.350;20.898;2023-03-16T14:22:09;8.40;60.70
36654;DHT22;22650;49.350;20.898;2023-03-16T14:24:50;8.50;61.00
36654;DHT22;22650;49.350;20.898;2023-03-16T14:27:28;8.70;62.00
36654;DHT22;22650;49.350;20.898;2023-03-16T14:30:14;8.80;60.90
36654;DHT22;22650;49.350;20.898;2023-03-16T14:32:57;9.00;61.40
36654;DHT22;22650;49.350;20.898;2023-03-16T14:35:38;9.00;59.90
36654;DHT22;22650;49.350;20.898;2023-03-16T14:38:20;9.00;59.70
36654;DHT22;22650;49.350;20.898;2023-03-16T14:40:57;8.90;58.50
36654;DHT22;22650;49.350;20.898;2023-03-16T14:43:32;8.60;59.50
36654;DHT22;22650;49.350;20.898;2023-03-16T14:46:10;8.60;59.90
36654;DHT22;22650;49.350;20.898;2023-03-16T14:48:46;8.50;60.60
36654;DHT22;22650;49.350;20.898;2023-03-16T14:51:19;8.50;60.80
36654;DHT22;22650;49.350;20.898;2023-03-16T14:53:53;8.50;60.80
36654;DHT22;22650;49.350;20.898;2023-03-16T14:56:32;8.40;60.00
36654;DHT22;22650;49.350;20.898;2023-03-16T14:59:07;8.10;60.70
36654;DHT22;22650;49.350;20.898;2023-03-16T15:01:42;8.00;60.40
36654;DHT22;22650;49.350;20.898;2023-03-16T15:04:19;7.90;61.40
36654;DHT22;22650;49.350;20.898;2023-03-16T15:06:54;7.80;62.10
36654;DHT22;22650;49.350;20.898;2023-03-16T15:09:33;7.70;61.80
36654;DHT22;22650;49.350;20.898;2023-03-16T15:12:13;7.60;62.00
36654;DHT22;22650;49.350;20.898;2023-03-16T15:14:47;7.50;62.20
36654;DHT22;22650;49.350;20.898;2023-03-16T15:17:38;7.50;63.40
36654;DHT22;22650;49.350;20.898;2023-03-16T15:20:13;7.30;62.20
36654;DHT22;22650;49.350;20.898;2023-03-16T15:22:48;7.30;63.50
36654;DHT22;22650;49.350;20.898;2023-03-16T15:25:29;7.10;62.60
36654;DHT22;22650;49.350;20.898;2023-03-16T15:28:13;7.00;62.90
36654;DHT22;22650;49.350;20.898;2023-03-16T15:30:50;7.00;63.90
36654;DHT22;22650;49.350;20.898;2023-03-16T15:33:25;6.90;63.60
36654;DHT22;22650;49.350;20.898;2023-03-16T15:36:01;6.80;64.70
36654;DHT22;22650;49.350;20.898;2023-03-16T15:38:44;6.80;64.50
36654;DHT22;22650;49.350;20.898;2023-03-16T15:41:18;6.70;64.40
36654;DHT22;22650;49.350;20.898;2023-03-16T15:43:53;6.50;64.80
36654;DHT22;22650;49.350;20.898;2023-03-16T15:46:31;6.50;65.10
36654;DHT22;22650;49.350;20.898;2023-03-16T15:49:05;6.40;65.60
36654;DHT22;22650;49.350;20.898;2023-03-16T15:51:39;6.30;66.50
36654;DHT22;22650;49.350;20.898;2023-03-16T15:54:13;6.30;66.30
36654;DHT22;22650;49.350;20.898;2023-03-16T15:56:46;6.20;67.00
36654;DHT22;22650;49.350;20.898;2023-03-16T15:59:30;6.10;66.90
36654;DHT22;22650;49.350;20.898;2023-03-16T16:02:21;6.10;67.50
36654;DHT22;22650;49.350;20.898;2023-03-16T16:04:57;6.00;68.20
36654;DHT22;22650;49.350;20.898;2023-03-16T16:07:30;5.90;67.70
36654;DHT22;22650;49.350;20.898;2023-03-16T16:10:05;5.90;68.30
36654;DHT22;22650;49.350;20.898;2023-03-16T16:12:39;5.90;68.80
36654;DHT22;22650;49.350;20.898;2023-03-16T16:15:18;5.80;68.40
36654;DHT22;22650;49.350;20.898;2023-03-16T16:17:54;5.80;69.40
36654;DHT22;22650;49.350;20.898;2023-03-16T16:20:48;5.70;69.80
36654;DHT22;22650;49.350;20.898;2023-03-16T16:23:22;5.50;70.00
36654;DHT22;22650;49.350;20.898;2023-03-16T16:26:00;5.50;70.20
36654;DHT22;22650;49.350;20.898;2023-03-16T16:28:34;5.40;70.80
36654;DHT22;22650;49.350;20.898;2023-03-16T16:31:11;5.30;71.10
36654;DHT22;22650;49.350;20.898;2023-03-16T16:33:45;5.30;71.80
36654;DHT22;22650;49.350;20.898;2023-03-16T16:36:19;5.20;71.60
36654;DHT22;22650;49.350;20.898;2023-03-16T16:38:53;5.10;72.00
36654;DHT22;22650;49.350;20.898;2023-03-16T16:41:29;5.00;72.30